createdAt,value
2022-10-05T00:00:01.993Z,19.50
2022-10-05T00:02:52.624Z,19.50
2022-10-05T00:05:42.675Z,19.50
2022-10-05T00:08:36.203Z,19.50
2022-10-05T00:11:25.393Z,19.50
2022-10-05T00:14:19.481Z,19.60
2022-10-05T00:17:11.736Z,19.50
2022-10-05T00:20:00.401Z,19.60
2022-10-05T00:22:49.596Z,19.50
2022-10-05T00:25:40.708Z,19.40
2022-10-05T00:28:31.617Z,19.40
2022-10-05T00:31:22.853Z,19.50
2022-10-05T00:34:11.833Z,19.40
2022-10-05T00:37:01.391Z,19.40
2022-10-05T00:39:51.429Z,19.40
2022-10-05T00:42:50.108Z,19.40
2022-10-05T00:45:43.681Z,19.40
2022-10-05T00:48:39.924Z,19.40
2022-10-05T00:51:31.267Z,19.40
2022-10-05T00:54:29.828Z,19.40
2022-10-05T00:57:34.655Z,19.40
2022-10-05T01:00:28.381Z,19.40
2022-10-05T01:03:23.724Z,19.30
2022-10-05T01:06:24.051Z,19.30
2022-10-05T01:09:21.728Z,19.30
2022-10-05T01:12:18.038Z,19.30
2022-10-05T01:15:13.142Z,19.30
2022-10-05T01:18:08.990Z,19.30
2022-10-05T01:21:04.894Z,19.30
2022-10-05T01:24:38.338Z,19.30
2022-10-05T01:27:50.968Z,19.40
2022-10-05T01:30:46.540Z,19.20
2022-10-05T01:33:42.273Z,19.20
2022-10-05T01:36:37.936Z,19.10
2022-10-05T01:39:38.897Z,19.00
2022-10-05T01:42:36.991Z,19.00
2022-10-05T01:45:36.782Z,19.10
2022-10-05T01:48:38.765Z,19.10
2022-10-05T01:51:38.142Z,19.10
2022-10-05T01:54:39.482Z,19.10
2022-10-05T01:57:42.925Z,19.10
2022-10-05T02:00:39.034Z,19.00
2022-10-05T02:03:32.409Z,19.00
2022-10-05T02:06:25.236Z,19.00
2022-10-05T02:09:17.826Z,18.90
2022-10-05T02:12:13.239Z,18.90
2022-10-05T02:15:10.497Z,18.90
2022-10-05T02:18:06.671Z,18.90
2022-10-05T02:20:58.182Z,18.90
2022-10-05T02:23:50.748Z,18.80
2022-10-05T02:26:40.863Z,18.80
2022-10-05T02:29:33.331Z,18.80
2022-10-05T02:32:26.502Z,18.80
2022-10-05T02:35:19.870Z,18.80
2022-10-05T02:38:15.763Z,18.80
2022-10-05T02:41:16.036Z,18.80
2022-10-05T02:44:12.222Z,18.80
2022-10-05T02:47:09.544Z,18.80
2022-10-05T02:50:05.044Z,18.80
2022-10-05T02:53:06.259Z,18.70
2022-10-05T02:56:06.480Z,18.70
2022-10-05T02:59:02.770Z,18.70
2022-10-05T03:01:53.936Z,18.60
2022-10-05T03:04:49.965Z,18.60
2022-10-05T03:07:49.721Z,18.60
2022-10-05T03:10:47.364Z,18.60
2022-10-05T03:13:48.365Z,18.60
2022-10-05T03:16:43.218Z,18.60
2022-10-05T03:19:57.390Z,18.60
2022-10-05T03:22:50.363Z,18.60
2022-10-05T03:25:55.593Z,18.60
2022-10-05T03:28:57.901Z,18.50
2022-10-05T03:31:50.471Z,18.50
2022-10-05T03:34:48.051Z,18.50
2022-10-05T03:37:45.625Z,18.50
2022-10-05T03:40:39.278Z,18.50
2022-10-05T03:43:53.760Z,18.50
2022-10-05T03:46:58.096Z,18.30
2022-10-05T03:50:06.650Z,18.40
2022-10-05T03:55:54.698Z,18.40
2022-10-05T03:58:54.315Z,18.40
2022-10-05T04:01:50.722Z,18.30
2022-10-05T04:04:44.114Z,18.30
2022-10-05T04:07:44.032Z,18.20
2022-10-05T04:10:41.062Z,18.20
2022-10-05T04:13:35.788Z,18.20
2022-10-05T04:16:29.269Z,18.20
2022-10-05T04:19:23.820Z,18.30
2022-10-05T04:22:17.475Z,18.30
2022-10-05T04:25:17.132Z,18.30
2022-10-05T04:28:12.968Z,18.30
2022-10-05T04:31:05.820Z,18.30
2022-10-05T04:34:10.424Z,18.30
2022-10-05T04:37:04.780Z,18.20
2022-10-05T04:40:08.094Z,18.10
2022-10-05T04:43:05.830Z,18.10
2022-10-05T04:46:15.618Z,18.10
2022-10-05T04:49:29.886Z,18.00
2022-10-05T04:52:26.397Z,17.90
2022-10-05T04:55:26.912Z,17.80
2022-10-05T04:58:30.626Z,17.70
2022-10-05T05:01:43.448Z,17.60
2022-10-05T05:04:56.260Z,17.60
2022-10-05T05:07:54.849Z,17.60
2022-10-05T05:11:06.258Z,17.60
2022-10-05T05:14:18.928Z,17.70
2022-10-05T05:17:19.730Z,17.60
2022-10-05T05:20:20.838Z,17.60
2022-10-05T05:23:16.608Z,17.60
2022-10-05T05:26:16.375Z,17.50
2022-10-05T05:29:10.610Z,17.40
2022-10-05T05:32:07.201Z,17.40
2022-10-05T05:35:24.306Z,17.40
2022-10-05T05:38:27.409Z,17.50
2022-10-05T05:41:25.230Z,17.60
2022-10-05T05:44:22.088Z,17.60
2022-10-05T05:47:18.575Z,17.60
2022-10-05T05:50:24.565Z,17.50
2022-10-05T05:53:20.288Z,17.40
2022-10-05T05:56:12.629Z,17.40
2022-10-05T05:59:05.780Z,17.40
2022-10-05T06:01:59.006Z,17.40
2022-10-05T06:04:52.858Z,17.40
2022-10-05T06:07:42.465Z,17.50
2022-10-05T06:10:41.599Z,17.60
2022-10-05T06:13:35.801Z,17.60
2022-10-05T06:16:31.390Z,17.70
2022-10-05T06:19:24.008Z,17.80
2022-10-05T06:22:22.553Z,17.80
2022-10-05T06:25:26.298Z,17.80
2022-10-05T06:28:17.788Z,17.80
2022-10-05T06:31:20.467Z,17.80
2022-10-05T06:34:24.592Z,17.80
2022-10-05T06:37:21.885Z,17.90
2022-10-05T06:40:19.732Z,17.90
2022-10-05T06:43:31.514Z,17.80
2022-10-05T06:46:24.509Z,17.70
2022-10-05T06:49:20.775Z,17.60
2022-10-05T06:52:18.007Z,17.60
2022-10-05T06:55:17.500Z,17.60
2022-10-05T06:58:21.045Z,17.70
2022-10-05T07:01:17.415Z,17.80
2022-10-05T07:04:20.325Z,17.90
2022-10-05T07:07:16.085Z,18.10
2022-10-05T07:10:19.114Z,18.30
2022-10-05T07:13:20.021Z,18.40
2022-10-05T07:16:19.793Z,18.50
2022-10-05T07:19:20.635Z,18.70
2022-10-05T07:22:30.532Z,18.80
2022-10-05T07:25:25.494Z,18.90
2022-10-05T07:28:20.514Z,19.00
2022-10-05T07:31:17.010Z,19.10
2022-10-05T07:34:11.051Z,19.20
2022-10-05T07:37:23.319Z,19.30
2022-10-05T07:40:19.072Z,19.40
2022-10-05T07:43:23.303Z,19.50
2022-10-05T07:46:22.276Z,19.50
2022-10-05T07:49:19.147Z,19.50
2022-10-05T07:52:14.163Z,19.50
2022-10-05T07:55:07.954Z,19.60
2022-10-05T07:58:06.981Z,19.60
2022-10-05T08:01:08.659Z,19.60
2022-10-05T08:04:03.355Z,19.60
2022-10-05T08:06:55.811Z,19.60
2022-10-05T08:09:50.236Z,19.70
2022-10-05T08:12:59.030Z,19.70
2022-10-05T08:15:51.692Z,19.80
2022-10-05T08:18:51.895Z,19.80
2022-10-05T08:21:47.568Z,19.90
2022-10-05T08:24:45.094Z,19.90
2022-10-05T08:27:43.522Z,20.00
2022-10-05T08:30:37.730Z,19.90
2022-10-05T08:33:32.898Z,20.00
2022-10-05T08:36:29.535Z,20.10
2022-10-05T08:39:22.825Z,20.00
2022-10-05T08:42:45.555Z,20.00
2022-10-05T08:46:00.844Z,20.10
2022-10-05T08:49:18.118Z,20.20
2022-10-05T08:52:29.123Z,20.20
2022-10-05T08:55:43.903Z,20.40
2022-10-05T08:58:51.857Z,20.40
2022-10-05T09:01:59.677Z,20.50
2022-10-05T09:05:04.595Z,20.60
2022-10-05T09:08:15.172Z,20.50
2022-10-05T09:11:11.382Z,20.50
2022-10-05T09:14:24.328Z,20.60
2022-10-05T09:17:25.961Z,20.80
2022-10-05T09:20:36.527Z,20.90
2022-10-05T09:23:38.872Z,21.00
2022-10-05T09:26:45.622Z,21.10
2022-10-05T09:33:16.443Z,21.40
2022-10-05T09:36:53.256Z,21.50
2022-10-05T09:40:31.645Z,21.60
2022-10-05T09:43:44.902Z,21.60
2022-10-05T09:47:04.169Z,21.70
2022-10-05T09:53:11.943Z,22.00
2022-10-05T10:02:52.455Z,22.40
2022-10-05T10:06:11.458Z,22.50
2022-10-05T10:09:19.856Z,22.60
2022-10-05T10:12:34.661Z,22.70
2022-10-05T10:15:41.780Z,22.80
2022-10-05T10:18:55.293Z,22.90
2022-10-05T10:22:17.964Z,23.00
2022-10-05T10:25:37.745Z,23.20
2022-10-05T10:32:08.027Z,23.30
2022-10-05T10:38:29.701Z,23.40
2022-10-05T10:41:55.012Z,23.50
2022-10-05T10:45:21.407Z,23.60
2022-10-05T10:51:26.552Z,24.10
2022-10-05T10:54:55.718Z,24.20
2022-10-05T10:58:06.039Z,24.20
2022-10-05T11:01:03.267Z,24.30
2022-10-05T11:04:30.900Z,24.40
2022-10-05T11:07:59.895Z,24.60
2022-10-05T11:11:27.435Z,24.70
2022-10-05T11:14:42.702Z,24.90
2022-10-05T11:18:03.199Z,25.10
2022-10-05T11:21:21.906Z,25.30
2022-10-05T11:28:00.999Z,25.50
2022-10-05T11:31:40.607Z,25.40
2022-10-05T11:38:01.609Z,25.70
2022-10-05T11:41:14.111Z,25.90
2022-10-05T11:44:43.027Z,26.10
2022-10-05T11:47:39.085Z,26.30
2022-10-05T11:50:34.240Z,26.40
2022-10-05T11:53:29.062Z,26.50
2022-10-05T12:08:25.739Z,26.70
2022-10-05T12:11:33.547Z,26.80
2022-10-05T12:14:34.612Z,26.90
2022-10-05T12:20:22.218Z,27.20
2022-10-05T12:23:18.592Z,27.20
2022-10-05T12:29:08.282Z,27.50
2022-10-05T12:32:03.048Z,27.50
2022-10-05T12:35:01.938Z,27.60
2022-10-05T12:37:57.851Z,27.60
2022-10-05T12:40:51.901Z,27.70
2022-10-05T12:43:50.477Z,27.90
2022-10-05T12:46:46.042Z,27.90
2022-10-05T12:50:12.743Z,27.90
2022-10-05T12:53:19.308Z,28.00
2022-10-05T12:56:13.211Z,28.00
2022-10-05T12:59:14.309Z,28.00
2022-10-05T13:02:13.348Z,27.80
2022-10-05T13:05:18.214Z,27.20
2022-10-05T13:08:19.437Z,26.70
2022-10-05T13:11:16.263Z,26.50
2022-10-05T13:14:18.588Z,26.60
2022-10-05T13:17:15.630Z,26.80
2022-10-05T13:20:13.882Z,27.00
2022-10-05T13:23:14.055Z,27.20
2022-10-05T13:29:00.065Z,27.30
2022-10-05T13:34:48.294Z,27.70
2022-10-05T13:37:44.927Z,27.70
2022-10-05T13:40:47.640Z,27.70
2022-10-05T13:43:45.011Z,27.70
2022-10-05T13:46:39.956Z,27.70
2022-10-05T13:49:38.358Z,27.50
2022-10-05T13:52:38.684Z,27.40
2022-10-05T13:55:42.188Z,27.50
2022-10-05T13:58:41.181Z,27.50
2022-10-05T14:01:42.957Z,27.60
2022-10-05T14:04:45.546Z,27.60
2022-10-05T14:07:38.402Z,27.50
2022-10-05T14:10:36.967Z,27.40
2022-10-05T14:13:30.600Z,27.40
2022-10-05T14:16:25.449Z,27.40
2022-10-05T14:19:22.949Z,27.30
2022-10-05T14:22:14.764Z,27.20
2022-10-05T14:25:17.112Z,27.20
2022-10-05T14:28:26.434Z,27.20
2022-10-05T14:34:29.359Z,27.00
2022-10-05T14:37:20.838Z,27.00
2022-10-05T14:40:29.084Z,26.90
2022-10-05T14:46:28.557Z,26.70
2022-10-05T14:49:22.997Z,26.60
2022-10-05T14:52:32.905Z,26.50
2022-10-05T14:55:38.414Z,26.40
2022-10-05T14:58:43.514Z,26.30
2022-10-05T15:01:36.207Z,26.20
2022-10-05T15:04:37.061Z,26.10
2022-10-05T15:07:29.655Z,25.90
2022-10-05T15:10:31.004Z,25.80
2022-10-05T15:13:22.518Z,25.80
2022-10-05T15:16:19.793Z,25.70
2022-10-05T15:22:28.265Z,25.50
2022-10-05T15:28:18.255Z,25.30
2022-10-05T15:31:19.920Z,25.10
2022-10-05T15:34:17.370Z,25.00
2022-10-05T15:37:16.089Z,24.90
2022-10-05T15:40:08.130Z,24.80
2022-10-05T15:43:04.332Z,24.70
2022-10-05T15:46:03.187Z,24.50
2022-10-05T15:51:59.550Z,24.30
2022-10-05T15:55:10.641Z,24.20
2022-10-05T15:58:12.196Z,24.10
2022-10-05T16:01:08.632Z,24.00
2022-10-05T16:04:06.510Z,24.00
2022-10-05T16:07:18.497Z,23.90
2022-10-05T16:10:14.817Z,23.90
2022-10-05T16:13:21.186Z,23.80
2022-10-05T16:16:21.072Z,23.70
2022-10-05T16:19:17.963Z,23.60
2022-10-05T16:22:18.048Z,23.50
2022-10-05T16:25:11.078Z,23.50
2022-10-05T16:28:13.241Z,23.40
2022-10-05T16:31:09.823Z,23.30
2022-10-05T16:34:06.729Z,23.30
2022-10-05T16:37:03.264Z,23.20
2022-10-05T16:42:55.159Z,22.80
2022-10-05T17:17:04.102Z,22.50
2022-10-05T17:20:10.443Z,22.50
2022-10-05T17:23:05.467Z,22.40
2022-10-05T17:25:57.461Z,22.40
2022-10-05T17:29:01.067Z,22.40
2022-10-05T17:32:13.575Z,22.30
2022-10-05T17:38:23.314Z,22.20
2022-10-05T17:41:22.508Z,22.30
2022-10-05T17:44:24.832Z,22.20
2022-10-05T17:47:16.339Z,22.10
2022-10-05T17:50:31.187Z,22.10
2022-10-05T17:53:53.062Z,22.10
2022-10-05T17:57:23.794Z,22.00
2022-10-05T18:00:42.192Z,22.00
2022-10-05T18:03:40.956Z,22.00
2022-10-05T18:06:35.549Z,21.90
2022-10-05T18:09:34.275Z,21.90
2022-10-05T18:12:42.833Z,21.90
2022-10-05T21:08:27.970Z,19.80
2022-10-05T23:32:59.479Z,18.30
2022-10-05T23:35:48.099Z,18.10
2022-10-05T23:38:37.910Z,18.10
2022-10-05T23:44:02.054Z,18.10
2022-10-05T23:46:52.401Z,18.20
2022-10-05T23:49:42.639Z,18.00
2022-10-05T23:52:31.952Z,18.20
2022-10-05T23:55:21.275Z,18.30
2022-10-05T23:58:10.383Z,18.20
